This is the latest recevied weather packets stored in our database for station/object N4OGP-WX. If no packets are shown the sender has not sent any weather packets the latest 10 day(s).
| Time | Temp. | Humidity | Pressure | Rain* | Wind** | Luminosity | Snow |
|---|---|---|---|---|---|---|---|
| 1778229568 | 19.44° C | 89% | 1011 hPa | 0 mm | - | - | - |
| 1778229478 | 23.89° C | 42% | 1020.4 hPa | 0 mm | - | - | - |
| 1778229418 | 19.44° C | 89% | 1010.9 hPa | 0 mm | - | - | - |
| 1778229328 | 19.44° C | 89% | 1010.9 hPa | 0 mm | - | - | - |
| 1778229269 | 19.44° C | 89% | 1011 hPa | 0 mm | - | - | - |
| 1778229208 | 19.44° C | 89% | 1010.9 hPa | 0 mm | - | - | - |
| 1778229118 | 23.89° C | 42% | 1020.4 hPa | 0 mm | - | - | - |
| 1778229058 | 23.89° C | 42% | 1020.4 hPa | 0 mm | - | - | - |
| 1778228968 | 19.44° C | 89% | 1011 hPa | 0 mm | - | - | - |
| 1778228878 | 19.44° C | 88% | 1011 hPa | 0 mm | - | - | - |
| 1778228818 | 23.89° C | 42% | 1020.4 hPa | 0 mm | - | - | - |
| 1778228728 | 23.89° C | 42% | 1020.4 hPa | 0 mm | - | - | - |
| 1778228668 | 23.89° C | 42% | 1020.4 hPa | 0 mm | - | - | - |
| 1778228608 | 23.89° C | 42% | 1020.4 hPa | 0 mm | - | - | - |
| 1778228548 | 23.89° C | 42% | 1020.4 hPa | 0 mm | - | - | - |
| 1778228488 | 23.89° C | 42% | 1020.4 hPa | 0 mm | - | - | - |
| 1778228428 | 23.89° C | 42% | 1020.4 hPa | 0 mm | - | - | - |
| 1778228338 | 19.44° C | 89% | 1010.9 hPa | 0 mm | - | - | - |
| 1778228278 | 19.44° C | 89% | 1010.9 hPa | 0 mm | - | - | - |
| 1778228218 | 23.89° C | 42% | 1020.4 hPa | 0 mm | - | - | - |
| 1778228128 | 23.89° C | 42% | 1020.4 hPa | 0 mm | - | - | - |
| 1778228068 | 19.44° C | 88% | 1011 hPa | 0 mm | - | - | - |
| 1778227978 | 19.44° C | 88% | 1010.9 hPa | 0 mm | - | - | - |
| 1778227888 | 23.89° C | 42% | 1020.4 hPa | 0 mm | - | - | - |
| 1778227798 | 23.89° C | 42% | 1020.4 hPa | 0 mm | - | - | - |
* Rain latest hour (hover to see other rain measurements)
** Current wind speed in m/s (hover to see current wind gust speed)